Time;durP1;ratioP1;P1;durP2;ratioP2;P2;SDS_P1;SDS_P2;PMS_P1;PMS_P2;Temp;Humidity;BMP_temperature;BMP_pressure;BME280_temperature;BME280_humidity;BME280_pressure;Samples;Min_cycle;Max_cycle;Signal;HPM_P1;HPM_P2
2022/10/11 00:00:12;;;;;;;4.03;2.33;;;12.50;99.90;;;;;;5020627;28;20422;-86
2022/10/11 00:02:38;;;;;;;4.73;4.20;;;12.30;1.00;;;;;;5019859;28;20422;-86
2022/10/11 00:05:09;;;;;;;4.87;2.70;;;12.30;1.00;;;;;;5024564;28;20414;-86
2022/10/11 00:07:37;;;;;;;5.50;3.50;;;12.40;99.90;;;;;;5020413;28;20541;-87
2022/10/11 00:10:05;;;;;;;4.93;2.50;;;12.30;1.00;;;;;;5020118;28;20970;-86
2022/10/11 00:12:32;;;;;;;4.37;2.60;;;12.30;1.00;;;;;;5019912;28;20487;-86
2022/10/11 00:14:59;;;;;;;7.60;2.27;;;12.10;99.90;;;;;;5019411;28;20431;-86
2022/10/11 00:17:25;;;;;;;7.80;3.73;;;12.20;1.00;;;;;;5020574;28;20438;-86
2022/10/11 00:19:52;;;;;;;3.30;2.63;;;12.20;99.90;;;;;;5027855;28;20444;-85
2022/10/11 00:22:20;;;;;;;8.53;4.93;;;12.10;1.00;;;;;;5026234;28;20439;-86
2022/10/11 00:24:47;;;;;;;3.93;2.77;;;12.00;1.00;;;;;;5021709;28;20972;-86
2022/10/11 00:27:13;;;;;;;6.40;2.53;;;12.10;99.90;;;;;;5020453;28;20458;-86
2022/10/11 00:29:40;;;;;;;8.13;2.37;;;12.00;99.90;;;;;;5020069;28;20517;-86
2022/10/11 00:32:07;;;;;;;11.27;3.60;;;11.90;37.90;;;;;;5020438;28;20826;-86
2022/10/11 00:34:34;;;;;;;4.43;2.07;;;11.90;99.90;;;;;;5019313;28;20450;-86
2022/10/11 00:37:00;;;;;;;6.47;3.30;;;11.80;1.00;;;;;;5027438;28;20414;-85
2022/10/11 00:39:28;;;;;;;4.70;2.30;;;11.80;1.00;;;;;;5020274;28;20828;-86
2022/10/11 00:41:55;;;;;;;5.73;2.13;;;12.10;71.30;;;;;;5017021;28;20430;-87
2022/10/11 00:44:24;;;;;;;4.60;2.40;;;11.80;1.00;;;;;;5017568;28;20846;-86
2022/10/11 00:46:54;;;;;;;8.80;2.27;;;11.70;1.00;;;;;;5017881;28;20467;-86
2022/10/11 00:49:27;;;;;;;5.73;2.70;;;11.50;1.00;;;;;;5017584;28;20925;-86
2022/10/11 00:51:58;;;;;;;8.17;2.87;;;11.70;99.90;;;;;;5020804;28;20444;-87
2022/10/11 00:54:31;;;;;;;3.40;2.00;;;11.50;99.90;;;;;;5026583;28;20806;-87
2022/10/11 00:57:03;;;;;;;11.63;3.53;;;11.40;1.00;;;;;;5026538;28;20442;-86
2022/10/11 00:59:35;;;;;;;7.20;2.90;;;11.40;99.90;;;;;;5026243;28;20451;-87
2022/10/11 01:02:02;;;;;;;7.90;2.67;;;11.50;26.40;;;;;;5032202;28;20399;-86
2022/10/11 01:04:29;;;;;;;5.20;2.00;;;11.40;1.00;;;;;;5027200;28;20417;-87
2022/10/11 01:06:57;;;;;;;7.37;2.70;;;11.40;99.90;;;;;;5028114;28;20467;-85
2022/10/11 01:09:24;;;;;;;5.50;2.03;;;11.40;52.00;;;;;;5030564;28;20474;-86
2022/10/11 01:11:56;;;;;;;7.43;3.13;;;11.20;1.00;;;;;;5033698;28;20450;-87
2022/10/11 01:14:48;;;;;;;9.10;3.50;;;11.20;1.00;;;;;;5024888;28;20428;-87
2022/10/11 01:17:23;;;;;;;5.50;2.53;;;11.20;1.00;;;;;;5022247;28;20522;-87
2022/10/11 01:20:21;;;;;;;7.70;2.30;;;11.20;1.00;;;;;;5022149;28;20482;-87
2022/10/11 01:23:11;;;;;;;6.00;3.10;;;11.40;1.00;;;;;;5023895;28;20409;-87
2022/10/11 01:25:49;;;;;;;5.90;2.40;;;11.20;1.00;;;;;;5038129;28;20443;-86
2022/10/11 01:28:33;;;;;;;4.03;2.00;;;10.90;1.00;;;;;;5038047;28;20444;-87
2022/10/11 01:31:05;;;;;;;8.47;2.23;;;11.20;1.00;;;;;;5036565;28;20459;-85
2022/10/11 01:33:40;;;;;;;6.27;2.00;;;11.10;1.00;;;;;;5034156;28;20789;-86
2022/10/11 01:36:18;;;;;;;3.03;1.80;;;11.20;39.80;;;;;;5031879;28;20453;-84
2022/10/11 01:38:49;;;;;;;8.27;2.37;;;10.90;1.00;;;;;;5026082;28;20407;-86
2022/10/11 01:41:23;;;;;;;9.47;2.97;;;10.90;55.00;;;;;;5024888;28;20428;-88
2022/10/11 01:43:51;;;;;;;7.27;2.10;;;10.90;80.60;;;;;;5020969;28;20433;-87
2022/10/11 01:46:21;;;;;;;11.23;2.70;;;10.80;99.90;;;;;;5021517;28;20866;-87
2022/10/11 01:48:49;;;;;;;9.33;2.30;;;10.90;99.90;;;;;;5018310;28;20985;-86
2022/10/11 01:51:17;;;;;;;8.30;2.30;;;11.00;99.90;;;;;;5017056;28;20450;-87
2022/10/11 01:54:06;;;;;;;9.00;2.80;;;10.90;99.90;;;;;;5017317;28;20429;-87
2022/10/11 01:57:13;;;;;;;6.73;3.77;;;10.90;99.90;;;;;;5016558;28;20853;-87
2022/10/11 01:59:51;;;;;;;13.03;2.80;;;10.90;99.90;;;;;;5017661;28;20439;-87
2022/10/11 02:02:32;;;;;;;7.40;2.57;;;10.90;99.90;;;;;;5021665;28;20759;-87
2022/10/11 02:05:05;;;;;;;6.20;1.90;;;10.90;99.90;;;;;;5022458;28;20542;-88
2022/10/11 02:07:39;;;;;;;8.80;2.50;;;10.70;99.90;;;;;;5023422;28;20467;-86
2022/10/11 02:10:11;;;;;;;4.13;1.73;;;10.60;99.90;;;;;;5033524;28;20435;-84
2022/10/11 02:12:41;;;;;;;4.37;2.10;;;10.50;99.90;;;;;;5019812;28;20836;-88
2022/10/11 02:15:10;;;;;;;7.03;2.03;;;10.40;99.90;;;;;;5018920;28;20434;-86
2022/10/11 02:17:43;;;;;;;3.43;2.17;;;10.30;99.90;;;;;;5018841;28;20860;-87
2022/10/11 02:20:16;;;;;;;10.63;2.10;;;10.40;99.90;;;;;;5023889;28;20462;-85
2022/10/11 02:22:45;;;;;;;9.13;2.37;;;10.30;99.90;;;;;;5021125;28;20387;-87
2022/10/11 02:25:17;;;;;;;7.23;2.63;;;10.30;99.90;;;;;;5020798;28;20422;-87
2022/10/11 02:27:47;;;;;;;6.40;2.37;;;10.20;99.90;;;;;;5021891;28;20458;-86
2022/10/11 02:30:15;;;;;;;7.73;3.03;;;10.30;99.90;;;;;;5027877;28;20430;-87
2022/10/11 02:32:45;;;;;;;8.67;3.33;;;10.20;99.90;;;;;;5027689;28;20461;-86
2022/10/11 02:35:13;;;;;;;5.80;2.07;;;10.30;99.90;;;;;;5023824;28;20798;-87
2022/10/11 02:37:43;;;;;;;12.50;3.73;;;10.40;99.90;;;;;;5025502;28;20475;-87
2022/10/11 02:40:16;;;;;;;4.67;2.77;;;10.20;99.90;;;;;;5029913;28;20447;-86
2022/10/11 02:42:47;;;;;;;6.53;2.73;;;10.40;99.90;;;;;;5039304;28;20479;-87
2022/10/11 02:45:18;;;;;;;14.40;2.70;;;10.20;99.90;;;;;;5039958;28;20420;-84
2022/10/11 02:47:47;;;;;;;6.73;2.53;;;10.10;99.90;;;;;;5028866;28;20506;-86
2022/10/11 02:50:14;;;;;;;5.57;2.80;;;10.10;99.90;;;;;;5023920;28;20429;-87
2022/10/11 02:52:41;;;;;;;4.97;2.10;;;10.10;99.90;;;;;;5024881;28;20461;-86
2022/10/11 02:55:09;;;;;;;8.47;2.40;;;10.10;99.90;;;;;;5028771;28;20437;-86
2022/10/11 02:57:36;;;;;;;3.83;2.03;;;10.00;99.90;;;;;;5034614;28;20438;-85
2022/10/11 03:00:04;;;;;;;10.43;2.90;;;10.00;99.90;;;;;;5032862;28;20425;-86
2022/10/11 03:02:30;;;;;;;7.40;2.43;;;10.00;99.90;;;;;;5033842;28;20418;-85
2022/10/11 03:04:59;;;;;;;7.20;3.00;;;10.00;99.90;;;;;;5035298;28;20444;-87
2022/10/11 03:07:25;;;;;;;13.00;2.93;;;9.80;99.90;;;;;;5036977;28;20535;-85
2022/10/11 03:09:52;;;;;;;6.00;1.97;;;9.90;99.90;;;;;;5030827;28;20417;-87
2022/10/11 03:12:19;;;;;;;8.10;3.17;;;9.80;99.90;;;;;;5022327;28;20483;-87
2022/10/11 03:14:45;;;;;;;6.30;2.13;;;9.40;99.90;;;;;;5034515;28;20424;-86
2022/10/11 03:17:12;;;;;;;8.30;2.60;;;9.70;99.90;;;;;;5025637;28;20494;-85
2022/10/11 03:19:39;;;;;;;7.70;2.83;;;9.80;99.90;;;;;;5028683;28;20426;-87
2022/10/11 03:22:07;;;;;;;5.67;2.23;;;9.80;99.90;;;;;;5030901;28;20444;-85
2022/10/11 03:24:33;;;;;;;6.77;2.60;;;9.70;99.90;;;;;;5032433;28;20460;-88
2022/10/11 03:27:00;;;;;;;5.33;2.67;;;9.70;99.90;;;;;;5050114;22;20547;-83
2022/10/11 03:29:27;;;;;;;6.57;2.30;;;9.70;99.90;;;;;;5022848;28;20458;-83
2022/10/11 03:31:53;;;;;;;10.97;3.07;;;9.70;99.90;;;;;;5021823;28;20450;-84
2022/10/11 03:34:20;;;;;;;5.27;2.63;;;9.60;99.90;;;;;;5022925;28;20995;-83
2022/10/11 03:36:47;;;;;;;6.57;3.10;;;9.60;99.90;;;;;;5024963;28;20512;-83
2022/10/11 03:39:16;;;;;;;7.03;2.27;;;9.70;99.90;;;;;;5027241;28;20418;-83
2022/10/11 03:41:42;;;;;;;4.27;2.37;;;9.60;99.90;;;;;;5026067;28;20957;-82
2022/10/11 03:44:09;;;;;;;6.87;3.70;;;9.60;99.90;;;;;;5024775;28;20458;-82
2022/10/11 03:46:36;;;;;;;6.10;2.53;;;9.80;99.90;;;;;;5024556;28;20443;-82
2022/10/11 03:49:03;;;;;;;13.60;4.33;;;9.70;99.90;;;;;;5024795;28;20473;-82
2022/10/11 03:51:30;;;;;;;14.13;3.83;;;9.70;99.90;;;;;;5026407;28;20420;-83
2022/10/11 03:53:57;;;;;;;7.83;3.40;;;9.70;99.90;;;;;;5025866;28;20909;-83
2022/10/11 03:56:25;;;;;;;6.00;2.47;;;9.80;99.90;;;;;;5024146;28;20451;-82
2022/10/11 03:58:52;;;;;;;4.80;2.80;;;9.80;99.90;;;;;;5024320;28;20462;-83
2022/10/11 04:01:19;;;;;;;7.27;3.27;;;9.70;99.90;;;;;;5023519;28;20451;-83
2022/10/11 04:03:45;;;;;;;15.97;2.97;;;9.90;99.90;;;;;;5023352;28;20440;-84
2022/10/11 04:06:12;;;;;;;11.10;2.90;;;9.70;99.90;;;;;;5022746;28;20422;-83
2022/10/11 04:08:38;;;;;;;10.03;3.23;;;9.70;99.90;;;;;;5022204;28;20471;-83
2022/10/11 04:11:07;;;;;;;11.63;3.63;;;9.70;99.90;;;;;;5022753;28;20426;-84
2022/10/11 04:13:35;;;;;;;7.50;3.60;;;9.70;99.90;;;;;;5021475;28;20479;-84
2022/10/11 04:16:02;;;;;;;9.73;2.67;;;9.70;99.90;;;;;;5022621;28;20474;-83
2022/10/11 04:18:29;;;;;;;9.80;3.17;;;9.60;99.90;;;;;;5023282;28;20965;-83
2022/10/11 04:20:56;;;;;;;7.73;2.83;;;9.60;99.90;;;;;;5022048;28;21003;-84
2022/10/11 04:23:23;;;;;;;8.60;4.37;;;9.60;99.90;;;;;;5021687;28;20443;-83
2022/10/11 04:25:49;;;;;;;9.10;3.53;;;9.60;99.90;;;;;;5021528;28;20428;-83
2022/10/11 04:28:16;;;;;;;8.17;3.43;;;9.70;99.90;;;;;;5021756;28;20467;-82
2022/10/11 04:30:44;;;;;;;14.70;3.30;;;9.70;99.90;;;;;;5021081;28;20946;-82
2022/10/11 04:33:11;;;;;;;9.70;3.43;;;9.80;99.90;;;;;;5020511;28;20481;-82
2022/10/11 04:35:38;;;;;;;7.17;3.63;;;9.50;99.90;;;;;;5021721;28;20921;-83
2022/10/11 04:38:04;;;;;;;10.03;3.60;;;9.60;99.90;;;;;;5021455;28;20442;-82
2022/10/11 04:40:31;;;;;;;15.83;4.20;;;9.70;99.90;;;;;;5021328;28;21000;-82
2022/10/11 04:42:58;;;;;;;10.00;4.93;;;9.50;99.90;;;;;;5022773;28;20455;-82
2022/10/11 04:45:25;;;;;;;7.00;3.23;;;9.50;99.90;;;;;;5024383;28;20418;-82
2022/10/11 04:47:53;;;;;;;7.70;5.47;;;9.50;99.90;;;;;;5028787;28;20446;-82
2022/10/11 04:50:20;;;;;;;10.30;4.40;;;9.60;99.90;;;;;;5026236;28;20426;-82
2022/10/11 04:52:47;;;;;;;14.17;6.23;;;9.60;99.90;;;;;;5030033;28;20551;-82
2022/10/11 04:55:14;;;;;;;13.47;5.30;;;9.60;99.90;;;;;;5030162;28;20461;-82
2022/10/11 04:57:41;;;;;;;5.57;3.90;;;9.50;99.90;;;;;;5027095;28;20442;-82
2022/10/11 05:00:08;;;;;;;15.40;4.10;;;9.50;99.90;;;;;;5026009;28;20440;-82
2022/10/11 05:02:35;;;;;;;8.13;4.33;;;9.40;99.90;;;;;;5022514;28;20447;-82
2022/10/11 05:05:04;;;;;;;11.93;4.83;;;9.40;99.90;;;;;;5022489;28;20453;-82
2022/10/11 05:07:30;;;;;;;11.17;4.63;;;9.40;99.90;;;;;;5025362;28;20502;-82
2022/10/11 05:09:57;;;;;;;6.93;4.60;;;9.40;99.90;;;;;;5022966;28;20886;-83
2022/10/11 05:12:24;;;;;;;8.80;4.50;;;9.40;99.90;;;;;;5023269;28;20425;-82
2022/10/11 05:14:50;;;;;;;8.70;3.47;;;9.40;99.90;;;;;;5021742;28;20455;-83
2022/10/11 05:17:17;;;;;;;9.00;3.90;;;9.40;99.90;;;;;;5020727;28;20506;-83
2022/10/11 05:19:44;;;;;;;11.37;5.20;;;9.40;99.90;;;;;;5020796;28;21024;-83
2022/10/11 05:22:12;;;;;;;5.73;3.57;;;9.60;99.90;;;;;;5020922;28;21009;-82
2022/10/11 05:24:38;;;;;;;9.73;4.83;;;9.40;99.90;;;;;;5020869;28;20439;-82
2022/10/11 05:27:05;;;;;;;11.93;4.50;;;9.50;99.90;;;;;;5020874;28;20458;-82
2022/10/11 05:29:32;;;;;;;25.53;5.90;;;9.30;99.90;;;;;;5021354;28;20807;-83
2022/10/11 05:31:59;;;;;;;12.20;5.10;;;9.30;99.90;;;;;;5022367;28;20448;-83
2022/10/11 05:34:25;;;;;;;8.73;3.80;;;9.20;99.90;;;;;;5023023;28;20462;-83
2022/10/11 05:36:52;;;;;;;6.53;4.67;;;9.20;99.90;;;;;;5024457;28;20980;-82
2022/10/11 05:39:20;;;;;;;24.50;11.27;;;9.20;99.90;;;;;;5025797;28;20447;-82
2022/10/11 05:41:47;;;;;;;12.33;6.97;;;9.20;99.90;;;;;;5022064;28;20957;-82
2022/10/11 05:44:13;;;;;;;17.63;4.80;;;9.30;99.90;;;;;;5022036;28;20429;-82
2022/10/11 05:46:40;;;;;;;10.20;4.20;;;9.50;99.90;;;;;;5021369;28;20454;-82
2022/10/11 05:49:07;;;;;;;10.97;4.87;;;9.40;99.90;;;;;;5021963;28;20513;-82
2022/10/11 05:51:33;;;;;;;23.47;5.30;;;9.40;99.90;;;;;;5022084;28;20422;-83
2022/10/11 05:54:00;;;;;;;14.67;5.13;;;9.30;99.90;;;;;;5022148;28;20485;-82
2022/10/11 05:56:28;;;;;;;15.67;5.13;;;9.30;99.90;;;;;;5021892;28;20427;-82
2022/10/11 05:58:55;;;;;;;13.70;6.47;;;9.30;99.90;;;;;;5022357;28;20429;-83
2022/10/11 06:01:23;;;;;;;10.40;4.30;;;9.30;99.90;;;;;;5021369;28;20451;-82
2022/10/11 06:03:51;;;;;;;11.27;4.67;;;9.30;99.90;;;;;;5021583;28;20444;-82
2022/10/11 06:06:18;;;;;;;24.53;5.53;;;9.40;99.90;;;;;;5021550;28;20428;-83
2022/10/11 06:08:46;;;;;;;5.70;3.77;;;9.30;99.90;;;;;;5030195;28;20471;-83
2022/10/11 06:11:14;;;;;;;12.10;5.20;;;9.40;99.90;;;;;;5031856;28;20507;-82
2022/10/11 06:13:43;;;;;;;23.23;5.40;;;9.40;99.90;;;;;;5021761;28;20508;-82
2022/10/11 06:16:10;;;;;;;6.53;4.40;;;9.40;99.90;;;;;;5019536;28;20462;-82
2022/10/11 06:18:37;;;;;;;23.93;6.37;;;9.50;99.90;;;;;;5019594;28;20471;-82
2022/10/11 06:21:04;;;;;;;16.73;5.53;;;9.80;99.90;;;;;;5021656;28;20488;-83
2022/10/11 06:23:31;;;;;;;13.63;5.50;;;9.50;99.90;;;;;;5025393;28;20443;-83
2022/10/11 06:25:59;;;;;;;8.53;4.90;;;9.40;99.90;;;;;;5033746;28;20447;-83
2022/10/11 06:28:27;;;;;;;15.10;5.10;;;9.40;99.90;;;;;;5032666;28;20472;-83
2022/10/11 06:30:55;;;;;;;7.53;4.07;;;9.50;99.90;;;;;;5034271;28;20445;-82
2022/10/11 06:33:23;;;;;;;11.17;5.00;;;9.50;99.90;;;;;;5034147;28;20450;-82
2022/10/11 06:35:49;;;;;;;18.33;5.73;;;9.60;99.90;;;;;;5033863;28;20421;-82
2022/10/11 06:38:16;;;;;;;12.37;5.37;;;9.60;99.90;;;;;;5034586;28;20444;-82
2022/10/11 06:40:43;;;;;;;14.10;5.40;;;9.70;99.90;;;;;;5026232;28;20471;-83
2022/10/11 06:43:10;;;;;;;10.57;4.83;;;9.70;99.90;;;;;;5023757;28;20422;-83
2022/10/11 06:45:36;;;;;;;9.57;5.60;;;9.80;99.90;;;;;;5022690;28;20766;-82
2022/10/11 06:48:05;;;;;;;10.40;5.17;;;9.80;99.90;;;;;;5025689;28;20441;-83
2022/10/11 06:50:32;;;;;;;9.63;5.00;;;9.80;99.90;;;;;;5028530;28;20426;-83
2022/10/11 06:52:59;;;;;;;7.80;4.90;;;9.80;99.90;;;;;;5033516;28;21038;-83
2022/10/11 06:55:26;;;;;;;8.60;6.33;;;9.80;99.90;;;;;;5031225;28;20424;-83
2022/10/11 06:57:52;;;;;;;10.60;4.87;;;9.90;99.90;;;;;;5026429;28;20449;-82
2022/10/11 07:00:19;;;;;;;11.43;5.00;;;9.90;99.90;;;;;;5026677;28;20422;-82
2022/10/11 07:02:47;;;;;;;18.90;5.23;;;10.00;99.90;;;;;;5026029;28;20422;-82
2022/10/11 07:05:16;;;;;;;9.47;4.07;;;10.00;99.90;;;;;;5025314;28;20414;-82
2022/10/11 07:07:43;;;;;;;8.93;4.60;;;10.00;99.90;;;;;;5024323;28;20421;-82
2022/10/11 07:10:10;;;;;;;16.20;5.97;;;10.10;99.90;;;;;;5026703;28;20212;-83
2022/10/11 07:12:37;;;;;;;6.73;4.60;;;10.10;99.90;;;;;;5026087;28;20508;-82
2022/10/11 07:15:04;;;;;;;7.70;4.60;;;10.20;99.90;;;;;;5036364;28;20489;-83
2022/10/11 07:17:30;;;;;;;8.30;4.77;;;10.20;99.90;;;;;;5036988;28;20981;-82
2022/10/11 07:19:57;;;;;;;9.70;4.78;;;10.20;99.90;;;;;;5037344;28;20484;-82
2022/10/11 07:22:25;;;;;;;8.90;3.87;;;10.30;99.90;;;;;;5033294;28;20215;-83
2022/10/11 07:24:52;;;;;;;10.73;4.33;;;10.30;99.90;;;;;;5030094;28;20440;-83
2022/10/11 07:27:19;;;;;;;11.90;4.53;;;10.40;99.90;;;;;;5028993;28;20578;-83
2022/10/11 07:29:45;;;;;;;11.80;5.47;;;10.40;99.90;;;;;;5027476;28;20561;-83
2022/10/11 07:32:12;;;;;;;15.67;4.77;;;10.40;99.90;;;;;;5026997;28;20426;-83
2022/10/11 07:34:39;;;;;;;8.07;4.60;;;10.50;99.90;;;;;;5027066;28;20446;-83
2022/10/11 07:37:05;;;;;;;15.90;4.67;;;10.50;99.90;;;;;;5027587;28;20446;-83
2022/10/11 07:39:33;;;;;;;17.30;5.10;;;10.50;99.90;;;;;;5027905;28;20418;-83
2022/10/11 07:42:00;;;;;;;7.97;4.90;;;10.50;99.90;;;;;;5028121;28;20443;-83
2022/10/11 07:44:27;;;;;;;11.47;5.67;;;10.60;99.90;;;;;;5029731;28;20418;-83
2022/10/11 07:46:54;;;;;;;7.47;4.20;;;10.60;99.90;;;;;;5024979;28;20464;-83
2022/10/11 07:49:20;;;;;;;8.40;4.57;;;10.70;99.90;;;;;;5028327;28;20452;-84
2022/10/11 07:51:48;;;;;;;9.00;4.57;;;10.70;99.90;;;;;;5031095;28;20463;-83
2022/10/11 07:54:15;;;;;;;15.57;4.90;;;10.80;99.90;;;;;;5032037;28;20442;-84
2022/10/11 07:56:43;;;;;;;12.95;5.05;;;10.70;99.90;;;;;;5031025;28;20429;-83
2022/10/11 07:59:11;;;;;;;10.00;5.10;;;10.80;99.90;;;;;;5027558;28;20208;-83
2022/10/11 08:01:37;;;;;;;10.63;4.20;;;10.90;99.90;;;;;;5025867;28;20455;-84
2022/10/11 08:04:07;;;;;;;14.50;4.87;;;10.90;99.90;;;;;;5026650;28;20447;-83
2022/10/11 08:06:35;;;;;;;11.80;4.00;;;11.10;99.90;;;;;;5028066;28;20447;-83
2022/10/11 08:09:02;;;;;;;10.03;4.30;;;11.00;99.90;;;;;;5029883;28;20419;-83
2022/10/11 08:11:30;;;;;;;9.23;3.83;;;11.20;99.90;;;;;;5034410;28;20445;-83
2022/10/11 08:13:59;;;;;;;12.67;4.60;;;11.00;99.90;;;;;;5035441;28;20467;-83
2022/10/11 08:16:26;;;;;;;15.50;6.93;;;;;;;;;;5030183;28;20450;-83
2022/10/11 08:18:55;;;;;;;7.63;3.97;;;11.10;99.90;;;;;;5030220;28;20479;-83
2022/10/11 08:21:22;;;;;;;8.57;3.90;;;;;;;;;;5029796;28;20447;-83
2022/10/11 08:23:49;;;;;;;8.30;3.83;;;11.30;99.90;;;;;;5030342;28;20422;-83
2022/10/11 08:26:16;;;;;;;9.03;4.17;;;11.30;99.90;;;;;;5029187;28;20447;-83
2022/10/11 08:28:43;;;;;;;11.43;5.15;;;11.40;99.90;;;;;;5030187;28;20846;-83
2022/10/11 08:31:13;;;;;;;10.40;5.30;;;11.40;99.90;;;;;;5030468;28;20240;-83
2022/10/11 08:33:41;;;;;;;9.90;4.50;;;11.40;99.90;;;;;;5026690;28;20488;-83
2022/10/11 08:36:08;;;;;;;10.73;4.47;;;11.50;88.50;;;;;;5024965;28;20481;-83
2022/10/11 08:38:37;;;;;;;9.00;4.40;;;11.50;48.80;;;;;;5024047;28;20479;-83
2022/10/11 08:41:23;;;;;;;7.63;3.30;;;11.50;17.00;;;;;;5023739;28;20897;-83
2022/10/11 08:43:57;;;;;;;11.67;5.07;;;11.60;1.00;;;;;;5023736;28;20878;-83
2022/10/11 08:46:30;;;;;;;10.80;4.63;;;11.50;6.50;;;;;;5023284;28;20481;-83
2022/10/11 08:48:57;;;;;;;6.93;4.07;;;11.70;1.00;;;;;;5024008;28;20196;-84
2022/10/11 08:51:27;;;;;;;11.97;5.07;;;11.70;1.00;;;;;;5023725;28;20504;-84
2022/10/11 08:53:58;;;;;;;7.03;3.60;;;11.80;99.90;;;;;;5023605;28;20464;-83
2022/10/11 08:56:27;;;;;;;9.80;4.73;;;11.90;99.90;;;;;;5023767;28;20977;-82
2022/10/11 08:58:58;;;;;;;7.20;4.40;;;11.90;1.00;;;;;;5023578;28;20425;-82
2022/10/11 09:01:27;;;;;;;14.57;3.43;;;11.90;99.90;;;;;;5023716;28;20410;-82
2022/10/11 09:03:56;;;;;;;12.70;4.40;;;12.00;50.70;;;;;;5023017;28;20475;-82
2022/10/11 09:06:39;;;;;;;9.47;3.10;;;12.00;99.90;;;;;;5023169;28;20836;-83
2022/10/11 09:09:26;;;;;;;9.20;3.70;;;12.10;1.00;;;;;;5019616;28;20414;-83
2022/10/11 09:12:02;;;;;;;11.30;5.20;;;12.10;99.90;;;;;;5020083;28;20406;-83
2022/10/11 09:14:49;;;;;;;5.90;2.93;;;12.20;1.00;;;;;;5023323;28;20446;-83
2022/10/11 09:17:31;;;;;;;5.80;3.33;;;12.20;76.50;;;;;;5023839;28;20449;-83
2022/10/11 09:20:15;;;;;;;8.67;3.23;;;12.30;99.90;;;;;;5022229;28;20930;-83
2022/10/11 09:22:50;;;;;;;8.97;2.97;;;12.30;1.00;;;;;;5025200;28;20417;-83
2022/10/11 09:25:23;;;;;;;6.20;3.40;;;12.40;19.20;;;;;;5024205;28;20423;-83
2022/10/11 09:28:04;;;;;;;5.80;3.13;;;12.10;1.00;;;;;;5037071;22;20536;-85
2022/10/11 09:30:32;;;;;;;5.03;2.30;;;12.50;99.90;;;;;;5021743;28;20430;-87
2022/10/11 09:33:13;;;;;;;5.37;2.57;;;12.40;99.90;;;;;;5021794;28;20440;-87
2022/10/11 09:35:42;;;;;;;5.90;2.60;;;12.60;1.00;;;;;;5018709;28;20496;-86
2022/10/11 09:38:18;;;;;;;5.50;2.87;;;12.60;99.90;;;;;;5020317;28;20467;-87
2022/10/11 09:40:54;;;;;;;13.17;5.07;;;12.70;1.00;;;;;;5019921;28;20837;-87
2022/10/11 09:43:21;;;;;;;5.60;3.13;;;12.80;1.00;;;;;;5017866;28;20435;-87
2022/10/11 09:45:48;;;;;;;5.27;2.50;;;12.80;1.00;;;;;;5019590;28;20418;-86
2022/10/11 09:48:20;;;;;;;5.50;3.07;;;12.80;1.00;;;;;;5018470;28;20464;-87
2022/10/11 09:50:47;;;;;;;9.60;3.23;;;12.80;99.90;;;;;;5017321;28;20467;-87
2022/10/11 09:53:14;;;;;;;4.40;2.10;;;12.90;99.90;;;;;;5016952;28;20426;-87
2022/10/11 09:55:49;;;;;;;5.37;2.40;;;13.00;89.90;;;;;;5017428;28;20483;-87
2022/10/11 09:58:28;;;;;;;7.53;2.40;;;13.10;1.00;;;;;;5017285;28;20471;-87
2022/10/11 10:01:01;;;;;;;8.47;2.50;;;13.10;1.00;;;;;;5017617;28;20906;-87
2022/10/11 10:03:31;;;;;;;6.50;2.20;;;13.20;1.00;;;;;;5018699;28;20459;-87
2022/10/11 10:06:09;;;;;;;20.53;7.90;;;13.20;1.00;;;;;;5019378;28;20484;-86
2022/10/11 10:08:36;;;;;;;7.57;3.90;;;13.30;1.00;;;;;;5021018;28;20474;-86
2022/10/11 10:11:06;;;;;;;10.33;3.13;;;13.30;1.00;;;;;;5029178;28;20425;-86
2022/10/11 10:13:44;;;;;;;14.17;5.67;;;13.30;99.90;;;;;;5031437;28;20414;-84
2022/10/11 10:16:23;;;;;;;45.23;21.80;;;13.80;1.00;;;;;;5033364;28;20455;-84
2022/10/11 10:18:54;;;;;;;7.47;2.70;;;13.50;1.00;;;;;;5032227;28;20446;-87
2022/10/11 10:21:28;;;;;;;7.20;2.47;;;13.60;99.90;;;;;;5036601;28;20416;-87
2022/10/11 10:23:56;;;;;;;10.30;2.70;;;13.70;1.00;;;;;;5031920;28;20442;-86
2022/10/11 10:26:26;;;;;;;6.20;3.37;;;13.70;99.90;;;;;;5031839;28;20459;-85
2022/10/11 10:29:00;;;;;;;6.33;2.33;;;13.70;92.50;;;;;;5030319;28;20526;-85
2022/10/11 10:31:34;;;;;;;4.17;2.23;;;13.80;99.90;;;;;;5030404;28;20773;-87
2022/10/11 10:34:04;;;;;;;6.30;3.30;;;13.90;1.00;;;;;;5030435;28;20514;-86
2022/10/11 10:36:35;;;;;;;6.10;3.57;;;13.90;31.80;;;;;;5028640;28;20399;-87
2022/10/11 10:39:09;;;;;;;10.00;2.10;;;14.00;1.00;;;;;;5027314;28;20442;-86
2022/10/11 10:41:36;;;;;;;7.00;2.70;;;;;;;;;;5023370;28;20408;-87
2022/10/11 10:44:03;;;;;;;13.57;3.60;;;;;;;;;;5024605;28;20443;-87
2022/10/11 10:46:48;;;;;;;12.93;5.10;;;14.30;1.00;;;;;;5026672;28;20418;-88
2022/10/11 10:49:25;;;;;;;9.63;4.10;;;14.40;1.00;;;;;;5029234;28;20435;-88
2022/10/11 10:52:04;;;;;;;7.93;3.47;;;14.50;1.00;;;;;;5029797;28;20828;-86
2022/10/11 10:54:41;;;;;;;5.63;2.00;;;14.60;1.00;;;;;;5027475;28;20471;-86
2022/10/11 10:57:16;;;;;;;7.43;2.33;;;14.60;1.00;;;;;;5026210;28;20470;-87
2022/10/11 11:00:00;;;;;;;8.33;2.33;;;14.50;1.00;;;;;;5026250;28;20436;-87
2022/10/11 11:02:34;;;;;;;9.07;2.50;;;14.40;1.00;;;;;;5026452;28;20411;-86
2022/10/11 11:05:11;;;;;;;9.87;2.00;;;14.30;1.00;;;;;;5026334;28;20412;-87
2022/10/11 11:07:44;;;;;;;10.70;2.00;;;14.40;1.00;;;;;;5025064;28;20473;-87
2022/10/11 11:10:15;;;;;;;3.30;1.43;;;14.30;1.00;;;;;;5024203;28;20402;-87
2022/10/11 11:12:47;;;;;;;5.23;1.80;;;14.40;1.00;;;;;;5024301;28;20443;-87
2022/10/11 11:15:20;;;;;;;8.90;3.23;;;14.30;1.00;;;;;;5025633;28;20471;-86
2022/10/11 11:18:04;;;;;;;12.20;2.30;;;14.40;1.00;;;;;;5025347;28;20467;-85
2022/10/11 11:20:45;;;;;;;9.30;2.73;;;14.50;1.00;;;;;;5027285;28;20410;-89
2022/10/11 11:23:22;;;;;;;5.30;1.83;;;14.40;1.00;;;;;;5026225;28;20431;-88
2022/10/11 11:25:57;;;;;;;6.20;2.63;;;14.40;1.00;;;;;;5028410;28;20428;-87
2022/10/11 11:28:44;;;;;;;4.87;2.10;;;14.40;1.00;;;;;;5024318;28;20453;-87
2022/10/11 11:31:21;;;;;;;4.73;2.67;;;15.50;99.90;;;;;;5022858;28;20436;-87
2022/10/11 11:33:59;;;;;;;7.40;2.60;;;14.50;1.00;;;;;;5021952;28;20932;-87
2022/10/11 11:36:35;;;;;;;7.20;2.07;;;14.50;1.00;;;;;;5020799;28;20816;-87
2022/10/11 11:39:04;;;;;;;3.83;2.20;;;14.50;1.00;;;;;;5021040;28;20471;-87
2022/10/11 11:41:36;;;;;;;6.50;2.67;;;14.50;1.00;;;;;;5019982;28;20792;-87
2022/10/11 11:44:09;;;;;;;7.17;2.50;;;14.40;1.00;;;;;;5019167;28;20791;-87
2022/10/11 11:46:40;;;;;;;3.93;1.97;;;14.50;1.00;;;;;;5019241;28;20432;-87
2022/10/11 11:49:16;;;;;;;8.83;2.50;;;14.70;1.00;;;;;;5021027;28;20467;-87
2022/10/11 11:51:47;;;;;;;5.60;2.27;;;14.70;1.00;;;;;;5019898;28;20439;-87
2022/10/11 11:54:27;;;;;;;6.77;1.40;;;14.90;1.00;;;;;;5019605;28;20436;-87
2022/10/11 11:57:01;;;;;;;6.73;3.90;;;15.10;19.70;;;;;;5020558;28;20432;-87
2022/10/11 11:59:36;;;;;;;8.67;2.00;;;15.20;1.00;;;;;;5019124;28;20498;-87
2022/10/11 12:02:24;;;;;;;5.50;2.73;;;15.30;1.00;;;;;;5018668;28;20431;-86
2022/10/11 12:04:52;;;;;;;6.43;2.17;;;15.40;1.00;;;;;;5019911;28;20763;-87
2022/10/11 12:07:23;;;;;;;9.20;1.97;;;15.40;1.00;;;;;;5020315;28;20457;-86
2022/10/11 12:09:53;;;;;;;3.67;2.77;;;15.50;1.00;;;;;;5021338;28;20779;-88
2022/10/11 12:12:29;;;;;;;5.50;2.33;;;15.60;1.00;;;;;;5020501;28;20430;-88
2022/10/11 12:15:16;;;;;;;4.40;1.63;;;15.60;1.00;;;;;;5018726;28;20467;-88
2022/10/11 12:18:14;;;;;;;6.20;2.77;;;15.40;1.00;;;;;;5023208;28;20498;-87
2022/10/11 12:20:45;;;;;;;7.93;2.73;;;15.40;1.00;;;;;;5017947;28;20456;-88
2022/10/11 12:23:43;;;;;;;4.47;1.97;;;15.20;1.00;;;;;;5023824;28;20424;-88
2022/10/11 12:26:38;;;;;;;14.43;4.80;;;15.20;1.00;;;;;;5021270;28;20754;-87
2022/10/11 12:29:42;;;;;;;6.70;2.77;;;15.20;1.00;;;;;;5020856;28;20484;-88
2022/10/11 12:32:50;;;;;;;7.50;2.13;;;15.30;27.30;;;;;;5019629;28;20426;-87
2022/10/11 12:36:03;;;;;;;4.60;1.87;;;15.30;1.00;;;;;;5019208;28;20523;-84
2022/10/11 12:38:33;;;;;;;6.20;2.13;;;15.20;1.00;;;;;;5034589;28;20482;-83
2022/10/11 12:41:36;;;;;;;5.47;2.20;;;15.40;99.90;;;;;;5039070;28;20443;-85
2022/10/11 12:44:19;;;;;;;4.33;2.67;;;14.90;1.00;;;;;;5034056;28;20443;-86
2022/10/11 12:47:15;;;;;;;12.13;2.80;;;14.70;99.90;;;;;;5019416;28;20428;-87
2022/10/11 12:49:56;;;;;;;6.20;2.20;;;14.70;1.00;;;;;;5021815;28;20416;-87
2022/10/11 12:52:33;;;;;;;3.57;1.80;;;14.70;1.00;;;;;;5022357;28;20788;-87
2022/10/11 12:55:25;;;;;;;4.97;2.20;;;14.70;1.00;;;;;;5019275;28;20502;-87
2022/10/11 12:58:21;;;;;;;4.53;1.90;;;14.60;1.00;;;;;;5022061;28;20479;-87
2022/10/11 13:01:09;;;;;;;8.83;2.50;;;14.50;1.00;;;;;;5026052;28;20436;-87
2022/10/11 13:03:39;;;;;;;11.20;3.10;;;14.40;1.00;;;;;;5036468;28;20418;-87
2022/10/11 13:06:17;;;;;;;7.87;2.67;;;14.40;1.00;;;;;;5030577;28;20438;-85
2022/10/11 13:08:49;;;;;;;9.93;2.00;;;14.40;1.00;;;;;;5033544;28;20441;-86
2022/10/11 13:11:22;;;;;;;3.50;2.07;;;14.40;1.00;;;;;;5024812;28;20436;-87